Time;durP1;ratioP1;P1;durP2;ratioP2;P2;SDS_P1;SDS_P2;PMS_P1;PMS_P2;Temp;Humidity;BMP_temperature;BMP_pressure;BME280_temperature;BME280_humidity;BME280_pressure;Samples;Min_cycle;Max_cycle;Signal;HPM_P1;HPM_P2
2022/10/21 00:00:22;;;;;;;23.73;14.77;;;;;;;15.58;100.00;97927.47;5139050;23;20895;-92
2022/10/21 00:02:25;;;;;;;23.50;15.60;;;;;;;15.60;100.00;97925.53;5112355;23;21119;-92
2022/10/21 00:04:28;;;;;;;20.17;16.07;;;;;;;15.61;100.00;97921.94;5137337;23;20589;-91
2022/10/21 00:06:31;;;;;;;26.67;16.90;;;;;;;15.63;100.00;97921.78;5137438;23;20686;-92
2022/10/21 00:08:34;;;;;;;21.57;15.97;;;;;;;15.61;100.00;97924.56;5112743;23;20604;-92
2022/10/21 00:10:38;;;;;;;19.03;15.30;;;;;;;15.61;100.00;97914.03;5138488;23;20595;-92
2022/10/21 00:12:42;;;;;;;26.40;15.90;;;;;;;15.59;100.00;97908.09;5111899;23;20589;-92
2022/10/21 00:14:45;;;;;;;19.80;15.77;;;;;;;15.56;100.00;97908.38;5111362;23;20596;-91
2022/10/21 00:16:48;;;;;;;19.10;15.53;;;;;;;15.53;100.00;97914.88;5136340;23;20647;-91
2022/10/21 00:18:51;;;;;;;22.30;15.83;;;;;;;15.52;100.00;97913.25;5136334;23;20674;-92
2022/10/21 00:20:54;;;;;;;21.47;15.80;;;;;;;15.48;100.00;97917.09;5136781;23;20640;-91
2022/10/21 00:22:57;;;;;;;20.40;15.80;;;;;;;15.46;100.00;97919.88;5112293;23;21175;-89
2022/10/21 00:25:00;;;;;;;22.70;15.57;;;;;;;15.46;100.00;97916.41;5137221;23;20573;-91
2022/10/21 00:27:03;;;;;;;20.17;15.37;;;;;;;15.45;100.00;97914.75;5111812;23;20584;-93
2022/10/21 00:29:09;;;;;;;27.30;16.57;;;;;;;15.42;100.00;97913.22;5111041;23;20616;-93
2022/10/21 00:31:13;;;;;;;20.10;15.87;;;;;;;15.40;100.00;97917.78;5111864;23;20588;-89
2022/10/21 00:33:16;;;;;;;23.00;15.40;;;;;;;15.40;100.00;97915.16;5112330;23;20582;-91
2022/10/21 00:35:19;;;;;;;29.57;15.50;;;;;;;15.39;100.00;97920.56;5111800;23;20607;-91
2022/10/21 00:37:22;;;;;;;20.83;15.40;;;;;;;15.38;100.00;97932.03;5138362;23;20615;-91
2022/10/21 00:39:27;;;;;;;20.57;15.43;;;;;;;15.38;100.00;97929.41;5111202;23;20592;-92
2022/10/21 00:41:30;;;;;;;21.40;15.90;;;;;;;15.39;100.00;97937.16;5138323;23;20654;-92
2022/10/21 00:43:33;;;;;;;19.50;16.63;;;;;;;15.40;100.00;97933.56;5114010;23;20980;-91
2022/10/21 00:45:37;;;;;;;21.53;16.07;;;;;;;15.39;100.00;97921.38;5137972;23;20578;-93
2022/10/21 00:47:43;;;;;;;20.50;14.73;;;;;;;15.38;100.00;97919.75;5139265;23;21127;-92
2022/10/21 00:49:49;;;;;;;21.37;16.73;;;;;;;15.38;100.00;97926.78;5113864;23;20577;-91
2022/10/21 00:51:55;;;;;;;21.37;16.00;;;;;;;15.34;100.00;97912.28;5162829;23;20640;-89
2022/10/21 00:53:59;;;;;;;21.37;15.43;;;;;;;15.31;100.00;97905.47;5114090;23;20572;-89
2022/10/21 00:56:07;;;;;;;19.57;14.57;;;;;;;15.30;100.00;97905.63;5112962;23;20612;-92
2022/10/21 00:58:13;;;;;;;19.07;15.70;;;;;;;15.29;100.00;97911.84;5112101;23;21020;-90
2022/10/21 01:00:17;;;;;;;19.97;16.30;;;;;;;15.29;100.00;97909.19;5114129;23;20594;-92
2022/10/21 01:02:22;;;;;;;20.90;15.00;;;;;;;15.29;100.00;97914.47;5137687;23;21115;-90
2022/10/21 01:04:25;;;;;;;19.60;15.27;;;;;;;15.26;100.00;97912.09;5138114;23;20671;-90
2022/10/21 01:06:29;;;;;;;23.87;15.23;;;;;;;15.26;100.00;97906.84;5114204;23;21140;-93
2022/10/21 01:08:32;;;;;;;19.17;14.50;;;;;;;15.26;100.00;97904.22;5139760;23;20596;-92
2022/10/21 01:10:37;;;;;;;19.80;14.10;;;;;;;15.27;100.00;97913.78;5139283;23;20600;-92
2022/10/21 01:12:48;;;;;;;24.70;16.33;;;;;;;15.26;100.00;97906.84;5114382;23;20586;-93
2022/10/21 01:14:56;;;;;;;22.60;15.70;;;;;;;15.25;100.00;97902.59;5112425;23;20585;-91
2022/10/21 01:17:05;;;;;;;22.30;16.63;;;;;;;15.25;100.00;97910.47;5113811;23;21151;-92
2022/10/21 01:19:50;;;;;;;19.77;14.97;;;;;;;15.24;100.00;97909.63;5139416;23;20917;-91
2022/10/21 01:21:58;;;;;;;21.00;15.83;;;;;;;15.23;100.00;97912.38;5138192;23;20582;-91
2022/10/21 01:24:19;;;;;;;26.13;17.33;;;;;;;15.24;100.00;97914.06;5113585;23;20571;-92
2022/10/21 01:26:49;;;;;;;19.20;14.97;;;;;;;15.24;100.00;97917.50;5138647;23;20673;-92
2022/10/21 01:29:04;;;;;;;20.70;15.40;;;;;;;15.24;100.00;97920.13;5128479;23;20646;-92
2022/10/21 01:31:13;;;;;;;21.10;14.30;;;;;;;15.26;100.00;97915.59;5114348;23;20819;-92
2022/10/21 01:33:39;;;;;;;18.80;15.23;;;;;;;15.25;100.00;97913.09;5114450;23;20907;-92
2022/10/21 01:35:47;;;;;;;20.30;14.60;;;;;;;15.22;100.00;97902.84;5134038;23;20706;-92
2022/10/21 01:37:56;;;;;;;18.53;15.43;;;;;;;15.23;100.00;97900.09;5139759;23;21202;-92
2022/10/21 01:40:03;;;;;;;23.33;14.87;;;;;;;15.21;100.00;97902.00;5138737;23;20583;-92
2022/10/21 01:42:10;;;;;;;21.83;16.20;;;;;;;15.24;100.00;97906.16;5113260;23;20585;-91
2022/10/21 01:44:19;;;;;;;21.93;16.50;;;;;;;15.26;100.00;97914.72;5138462;23;20644;-92
2022/10/21 01:46:26;;;;;;;23.77;15.20;;;;;;;15.28;100.00;97912.81;5139233;23;20580;-92
2022/10/21 01:48:32;;;;;;;16.80;14.40;;;;;;;15.29;100.00;97914.47;5140030;23;20636;-92
2022/10/21 01:50:40;;;;;;;21.07;16.00;;;;;;;15.31;100.00;97908.09;5114015;23;20584;-92
2022/10/21 01:52:47;;;;;;;20.27;14.60;;;;;;;15.32;100.00;97903.66;5137681;23;20612;-91
2022/10/21 01:54:54;;;;;;;21.20;15.23;;;;;;;15.32;100.00;97903.66;5138234;23;20578;-90
2022/10/21 01:56:58;;;;;;;25.47;14.80;;;;;;;15.32;100.00;97898.41;5112701;23;20617;-93
2022/10/21 01:59:02;;;;;;;17.93;14.40;;;;;;;15.32;100.00;97898.41;5138053;23;21103;-91
2022/10/21 02:01:07;;;;;;;25.93;16.37;;;;;;;15.29;100.00;97891.66;5137300;23;20584;-91
2022/10/21 02:03:15;;;;;;;19.93;14.77;;;;;;;15.20;100.00;97889.03;5162994;23;21097;-92
2022/10/21 02:05:20;;;;;;;22.30;15.53;;;;;;;15.14;100.00;97892.19;5113043;23;20583;-92
2022/10/21 02:07:23;;;;;;;17.63;14.47;;;;;;;15.12;100.00;97892.31;5163661;22;20558;-92
2022/10/21 02:09:26;;;;;;;20.20;14.50;;;;;;;15.14;100.00;97897.44;5139550;23;21187;-92
2022/10/21 02:11:30;;;;;;;24.57;15.90;;;;;;;15.13;100.00;97899.22;5138571;23;20621;-92
2022/10/21 02:13:36;;;;;;;19.33;13.93;;;;;;;15.13;100.00;97898.41;5163438;23;20789;-92
2022/10/21 02:15:39;;;;;;;19.53;14.90;;;;;;;15.12;100.00;97899.34;5138052;23;20850;-91
2022/10/21 02:17:46;;;;;;;21.23;15.30;;;;;;;15.09;100.00;97897.84;5139623;23;20726;-91
2022/10/21 02:19:50;;;;;;;22.20;15.10;;;;;;;15.10;100.00;97888.16;5114227;23;20578;-90
2022/10/21 02:21:56;;;;;;;20.83;15.10;;;;;;;15.10;100.00;97894.22;5112554;23;20608;-92
2022/10/21 02:24:03;;;;;;;18.53;13.60;;;;;;;15.09;100.00;97891.75;5113659;23;20602;-91
2022/10/21 02:26:06;;;;;;;16.33;13.80;;;;;;;15.10;100.00;97883.72;5163824;23;21150;-92
2022/10/21 02:28:09;;;;;;;19.20;14.60;;;;;;;15.10;100.00;97878.47;5114233;23;21154;-92
2022/10/21 02:30:12;;;;;;;18.07;12.30;;;;;;;15.10;100.00;97873.22;5137995;23;20591;-90
2022/10/21 02:32:26;;;;;;;17.47;13.50;;;;;;;15.07;100.00;97857.72;5114420;23;20571;-91
2022/10/21 02:34:37;;;;;;;17.20;13.27;;;;;;;15.07;100.00;97851.66;5138647;23;21145;-91
2022/10/21 02:36:49;;;;;;;15.73;11.57;;;;;;;15.06;100.00;97849.97;5138209;23;21150;-91
2022/10/21 02:38:55;;;;;;;15.73;12.07;;;;;;;15.07;100.00;97846.41;5138724;23;20586;-92
2022/10/21 02:41:01;;;;;;;19.73;12.77;;;;;;;15.06;100.00;97839.47;5113802;23;20576;-92
2022/10/21 02:43:07;;;;;;;13.57;11.10;;;;;;;15.07;100.00;97830.63;5140296;23;20555;-91
2022/10/21 02:45:11;;;;;;;14.13;12.00;;;;;;;15.10;100.00;97825.09;5112091;23;20602;-91
2022/10/21 02:47:15;;;;;;;21.37;11.80;;;;;;;15.12;100.00;97807.41;5113380;23;20580;-91
2022/10/21 02:49:18;;;;;;;14.37;11.50;;;;;;;15.13;100.00;97802.00;5112952;23;20694;-90
2022/10/21 02:51:21;;;;;;;17.37;11.50;;;;;;;15.17;100.00;97794.72;5112620;23;20617;-91
2022/10/21 02:53:26;;;;;;;19.50;10.83;;;;;;;15.20;100.00;97797.91;5137362;23;20582;-89
2022/10/21 02:55:29;;;;;;;14.10;10.93;;;;;;;15.23;100.00;97787.09;5112580;23;20587;-92
2022/10/21 02:57:32;;;;;;;14.50;10.43;;;;;;;15.27;100.00;97795.53;5112645;23;20721;-92
2022/10/21 02:59:35;;;;;;;17.17;11.30;;;;;;;15.28;100.00;97800.66;5136710;23;20993;-91
2022/10/21 03:01:38;;;;;;;23.10;10.60;;;;;;;15.30;100.00;97797.88;5111375;23;20586;-90
2022/10/21 03:03:41;;;;;;;14.13;10.00;;;;;;;15.33;100.00;97797.59;5137074;23;20598;-91
2022/10/21 03:05:44;;;;;;;11.73;9.20;;;;;;;15.36;100.00;97795.50;5136676;23;20590;-91
2022/10/21 03:07:48;;;;;;;12.23;9.50;;;;;;;15.38;100.00;97803.25;5114195;23;20654;-92
2022/10/21 03:09:53;;;;;;;18.97;11.20;;;;;;;15.37;100.00;97785.84;5137867;23;20622;-91
2022/10/21 03:11:56;;;;;;;18.30;12.10;;;;;;;15.35;100.00;97790.38;5111800;23;20619;-93
2022/10/21 03:13:59;;;;;;;14.73;11.50;;;;;;;15.29;100.00;97777.81;5113154;23;21143;-89
2022/10/21 03:16:02;;;;;;;15.10;11.87;;;;;;;15.26;100.00;97785.97;5163212;23;20929;-91
2022/10/21 03:18:05;;;;;;;18.20;12.87;;;;;;;15.23;100.00;97779.22;5138096;23;20979;-91
2022/10/21 03:20:09;;;;;;;17.50;13.60;;;;;;;15.23;100.00;97775.75;5113102;23;20653;-92
2022/10/21 03:22:12;;;;;;;20.40;12.67;;;;;;;15.23;100.00;97752.09;5139158;23;20615;-92
2022/10/21 03:24:15;;;;;;;20.97;13.97;;;;;;;15.23;100.00;97752.09;5113576;23;20626;-90
2022/10/21 03:26:32;;;;;;;17.33;13.20;;;;;;;15.18;100.00;97744.66;5137778;23;20702;-92
2022/10/21 03:28:35;;;;;;;19.67;13.80;;;;;;;15.16;100.00;97737.84;5111268;23;20611;-92
2022/10/21 03:30:38;;;;;;;22.00;13.37;;;;;;;15.14;100.00;97745.88;5112357;23;20591;-90
2022/10/21 03:32:41;;;;;;;18.80;13.90;;;;;;;15.13;100.00;97751.28;5113575;23;20625;-92
2022/10/21 03:34:44;;;;;;;18.53;13.20;;;;;;;15.09;100.00;97740.22;5137903;23;20595;-89
2022/10/21 03:36:47;;;;;;;17.53;14.37;;;;;;;15.08;100.00;97748.25;5111915;23;21173;-92
2022/10/21 03:38:50;;;;;;;18.10;13.87;;;;;;;15.06;100.00;97742.28;5137292;23;20647;-91
2022/10/21 03:40:53;;;;;;;23.20;14.67;;;;;;;14.99;100.00;97738.59;5112640;23;20584;-91
2022/10/21 03:42:57;;;;;;;20.03;15.33;;;;;;;14.95;100.00;97731.94;5113764;23;21115;-91
2022/10/21 03:45:00;;;;;;;20.17;13.53;;;;;;;14.94;100.00;97730.28;5138060;23;20583;-91
2022/10/21 03:47:03;;;;;;;32.27;15.50;;;;;;;14.91;100.00;97733.19;5163403;23;21200;-92
2022/10/21 03:49:06;;;;;;;21.43;14.17;;;;;;;14.89;100.00;97737.75;5112176;23;20648;-92
2022/10/21 03:51:17;;;;;;;20.30;13.73;;;;;;;14.85;100.00;97743.41;5137648;23;20948;-91
2022/10/21 03:53:20;;;;;;;22.50;14.63;;;;;;;14.83;100.00;97748.81;5137960;23;20591;-92
2022/10/21 03:55:44;;;;;;;15.80;13.60;;;;;;;14.82;100.00;97751.56;5136344;23;20678;-92
2022/10/21 03:57:47;;;;;;;28.50;14.40;;;;;;;14.82;100.00;97741.88;5136730;23;20605;-92
2022/10/21 03:59:51;;;;;;;22.53;13.87;;;;;;;14.81;100.00;97740.25;5136352;23;21113;-93
2022/10/21 04:01:54;;;;;;;19.77;13.67;;;;;;;14.81;100.00;97742.88;5137408;23;20629;-93
2022/10/21 04:03:57;;;;;;;17.50;13.77;;;;;;;14.82;100.00;97736.63;5138937;23;20582;-93
2022/10/21 04:06:00;;;;;;;17.70;15.13;;;;;;;14.84;100.00;97737.34;5136978;23;20573;-94
2022/10/21 04:08:04;;;;;;;23.30;15.60;;;;;;;14.86;100.00;97737.22;5111632;23;20704;-93
2022/10/21 04:10:08;;;;;;;23.33;15.90;;;;;;;14.88;100.00;97743.97;5137077;23;21512;-93
2022/10/21 04:12:11;;;;;;;20.43;14.57;;;;;;;14.92;100.00;97741.91;5137670;23;20611;-93
2022/10/21 04:14:18;;;;;;;18.67;13.90;;;;;;;14.95;100.00;97741.63;5136368;23;20963;-92
2022/10/21 04:16:23;;;;;;;19.50;14.07;;;;;;;14.96;100.00;97727.50;5112696;23;20575;-95
2022/10/21 04:18:27;;;;;;;18.63;13.90;;;;;;;14.97;100.00;97729.16;5113870;23;21189;-96
2022/10/21 04:20:30;;;;;;;19.83;13.83;;;;;;;14.97;100.00;97719.47;5114297;23;20595;-96
2022/10/21 04:22:36;;;;;;;21.73;13.73;;;;;;;15.00;100.00;97721.00;5114668;23;20591;-96
2022/10/21 04:24:43;;;;;;;21.20;14.30;;;;;;;15.04;100.00;97728.47;5113342;23;20608;-95
2022/10/21 04:26:46;;;;;;;18.80;14.37;;;;;;;15.03;100.00;97724.19;5139021;23;21144;-94
2022/10/21 04:28:49;;;;;;;21.63;14.40;;;;;;;15.04;100.00;97722.41;5164134;23;20618;-93
2022/10/21 04:30:52;;;;;;;19.80;14.00;;;;;;;15.06;100.00;97715.19;5138110;23;21113;-92
2022/10/21 04:32:57;;;;;;;21.83;14.10;;;;;;;15.06;100.00;97718.66;5114165;23;20620;-95
2022/10/21 04:35:00;;;;;;;23.10;13.73;;;;;;;15.07;100.00;97719.50;5113068;23;20670;-95
2022/10/21 04:37:03;;;;;;;20.00;14.77;;;;;;;15.07;100.00;97706.34;5113178;23;21049;-95
2022/10/21 04:39:07;;;;;;;19.23;13.23;;;;;;;15.06;100.00;97702.88;5111926;23;20619;-93
2022/10/21 04:41:10;;;;;;;23.87;14.60;;;;;;;15.04;100.00;97701.38;5112560;23;20995;-95
2022/10/21 04:43:13;;;;;;;20.70;13.87;;;;;;;15.04;100.00;97709.25;5114680;23;20578;-93
2022/10/21 04:45:17;;;;;;;20.00;13.27;;;;;;;15.03;100.00;97704.97;5137933;23;20587;-95
2022/10/21 04:47:20;;;;;;;20.07;14.27;;;;;;;15.01;100.00;97694.59;5114137;23;20941;-94
2022/10/21 04:49:25;;;;;;;19.33;15.47;;;;;;;15.01;100.00;97699.84;5138880;23;20575;-91
2022/10/21 04:51:28;;;;;;;19.10;14.03;;;;;;;15.01;100.00;97693.78;5139389;23;20586;-92
2022/10/21 04:53:31;;;;;;;19.80;14.13;;;;;;;15.00;100.00;97698.19;5138575;23;20578;-91
2022/10/21 04:55:34;;;;;;;19.53;15.10;;;;;;;15.01;100.00;97697.22;5113325;23;20610;-91
2022/10/21 04:57:38;;;;;;;20.90;14.70;;;;;;;15.01;100.00;97707.75;5137710;23;20930;-92
2022/10/21 04:59:41;;;;;;;21.10;14.90;;;;;;;14.99;100.00;97712.31;5112704;23;20622;-92
2022/10/21 05:01:44;;;;;;;18.43;14.80;;;;;;;15.00;100.00;97703.44;5138464;23;20925;-90
2022/10/21 05:03:47;;;;;;;21.17;14.47;;;;;;;15.01;100.00;97713.00;5138946;23;21158;-92
2022/10/21 05:05:52;;;;;;;18.73;14.70;;;;;;;15.02;100.00;97716.44;5138108;23;20588;-91
2022/10/21 05:07:55;;;;;;;26.13;14.67;;;;;;;15.03;100.00;97699.72;5114632;23;21173;-92
2022/10/21 05:09:58;;;;;;;18.33;14.40;;;;;;;15.05;100.00;97705.66;5114716;23;20604;-91
2022/10/21 05:12:01;;;;;;;16.27;14.47;;;;;;;15.05;100.00;97706.50;5140263;23;20577;-91
2022/10/21 05:14:04;;;;;;;19.20;14.30;;;;;;;15.06;100.00;97708.13;5115179;23;20598;-91
2022/10/21 05:16:07;;;;;;;19.00;13.90;;;;;;;15.07;100.00;97698.47;5138736;23;20603;-90
2022/10/21 05:18:10;;;;;;;17.80;13.43;;;;;;;15.07;100.00;97708.00;5140110;23;20587;-93
2022/10/21 05:20:13;;;;;;;20.27;14.53;;;;;;;15.07;100.00;97708.00;5115055;23;20576;-91
2022/10/21 05:22:18;;;;;;;25.13;13.60;;;;;;;15.07;100.00;97709.81;5140201;23;20588;-91
2022/10/21 05:24:21;;;;;;;17.90;13.37;;;;;;;15.07;100.00;97709.81;5139497;23;21169;-93
2022/10/21 05:26:24;;;;;;;19.80;13.37;;;;;;;15.07;100.00;97704.56;5115155;23;20642;-92
2022/10/21 05:28:27;;;;;;;15.00;12.53;;;;;;;15.09;100.00;97707.84;5138983;23;20578;-91
2022/10/21 05:30:30;;;;;;;25.10;13.37;;;;;;;15.09;100.00;97707.84;5138913;23;20614;-93
2022/10/21 05:32:33;;;;;;;17.50;13.80;;;;;;;15.08;100.00;97704.41;5140731;23;20579;-93
2022/10/21 05:34:36;;;;;;;16.90;13.37;;;;;;;15.09;100.00;97703.44;5140290;23;20586;-92
2022/10/21 05:36:39;;;;;;;17.30;13.83;;;;;;;15.09;100.00;97699.97;5139606;23;20638;-91
2022/10/21 05:38:44;;;;;;;21.80;14.03;;;;;;;15.08;100.00;97696.53;5140879;23;20603;-92
2022/10/21 05:40:47;;;;;;;15.23;13.50;;;;;;;15.05;100.00;97701.25;5140252;23;20587;-90
2022/10/21 05:42:50;;;;;;;19.80;14.80;;;;;;;15.03;100.00;97705.78;5139803;23;20965;-93
2022/10/21 05:44:53;;;;;;;16.80;13.83;;;;;;;15.02;100.00;97703.31;5113293;23;20578;-91
2022/10/21 05:46:56;;;;;;;21.70;15.50;;;;;;;15.04;100.00;97707.47;5137891;23;20585;-91
2022/10/21 05:48:59;;;;;;;17.80;15.40;;;;;;;15.05;100.00;97717.00;5113267;23;20600;-91
2022/10/21 05:51:03;;;;;;;22.33;15.83;;;;;;;15.06;100.00;97710.75;5138362;23;20617;-91
2022/10/21 05:53:06;;;;;;;20.30;14.87;;;;;;;15.07;100.00;97717.69;5113662;23;20633;-91
2022/10/21 05:55:11;;;;;;;18.60;14.50;;;;;;;15.09;100.00;97715.72;5137961;23;20702;-91
2022/10/21 05:57:14;;;;;;;20.63;14.40;;;;;;;15.10;100.00;97717.41;5137845;23;20689;-90
2022/10/21 05:59:17;;;;;;;15.90;13.17;;;;;;;15.10;100.00;97718.22;5162732;23;20620;-92
2022/10/21 06:01:20;;;;;;;19.27;14.43;;;;;;;15.10;100.00;97714.78;5162058;23;20952;-90
2022/10/21 06:03:24;;;;;;;21.47;13.00;;;;;;;15.11;100.00;97719.88;5113471;23;20580;-90
2022/10/21 06:05:27;;;;;;;17.00;12.70;;;;;;;15.09;100.00;97713.09;5137975;23;21149;-92
2022/10/21 06:07:30;;;;;;;24.53;13.43;;;;;;;15.09;100.00;97718.38;5113917;23;20578;-91
2022/10/21 06:09:33;;;;;;;16.63;11.97;;;;;;;15.09;100.00;97713.09;5138293;23;20586;-92
2022/10/21 06:11:38;;;;;;;19.60;12.33;;;;;;;15.10;100.00;97725.28;5138822;23;20676;-91
2022/10/21 06:13:41;;;;;;;21.13;13.50;;;;;;;15.09;100.00;97724.47;5114725;23;20635;-91
2022/10/21 06:15:44;;;;;;;16.40;13.10;;;;;;;15.10;100.00;97733.97;5138028;23;20659;-91
2022/10/21 06:17:52;;;;;;;17.27;12.50;;;;;;;15.11;100.00;97730.41;5139597;23;20946;-92
2022/10/21 06:19:55;;;;;;;15.70;12.63;;;;;;;15.11;100.00;97729.56;5114546;23;20687;-91
2022/10/21 06:21:59;;;;;;;17.33;13.17;;;;;;;15.12;100.00;97732.06;5112645;23;20951;-91
2022/10/21 06:24:02;;;;;;;18.03;12.90;;;;;;;15.13;100.00;97725.81;5114774;23;21132;-93
2022/10/21 06:26:06;;;;;;;21.53;12.13;;;;;;;15.14;100.00;97730.13;5114481;23;20635;-90
2022/10/21 06:28:13;;;;;;;17.10;12.70;;;;;;;15.17;100.00;97736.94;5139687;23;20612;-92
2022/10/21 06:30:16;;;;;;;15.63;11.73;;;;;;;15.16;100.00;97729.97;5114308;23;20580;-92
2022/10/21 06:32:19;;;;;;;17.33;12.53;;;;;;;15.18;100.00;97728.06;5114169;23;20918;-91
2022/10/21 06:34:22;;;;;;;18.57;11.60;;;;;;;15.19;100.00;97727.09;5114359;23;20571;-92
2022/10/21 06:36:25;;;;;;;17.40;12.57;;;;;;;15.18;100.00;97728.91;5113537;23;20578;-92
2022/10/21 06:38:31;;;;;;;16.10;10.73;;;;;;;15.19;100.00;97730.53;5139175;23;20857;-95
2022/10/21 06:40:34;;;;;;;17.53;12.20;;;;;;;15.24;100.00;97732.75;5139609;23;21017;-94
2022/10/21 06:42:37;;;;;;;16.63;11.60;;;;;;;15.28;100.00;97734.13;5138611;23;20609;-94
2022/10/21 06:44:41;;;;;;;18.50;10.00;;;;;;;15.32;100.00;97731.06;5113025;23;20580;-95
2022/10/21 06:46:45;;;;;;;14.90;10.93;;;;;;;15.38;100.00;97732.28;5139894;23;20567;-94
2022/10/21 06:48:48;;;;;;;15.60;11.50;;;;;;;15.40;100.00;97739.06;5112398;23;21133;-92
2022/10/21 06:50:57;;;;;;;17.63;12.73;;;;;;;15.42;100.00;97741.56;5112836;23;20587;-92
2022/10/21 06:53:00;;;;;;;51.13;28.83;;;;;;;15.36;100.00;97742.13;5140366;23;20647;-92
2022/10/21 06:55:03;;;;;;;206.03;86.03;;;;;;;15.34;100.00;97747.53;5112798;23;20587;-90
2022/10/21 06:57:06;;;;;;;107.37;51.70;;;;;;;15.34;100.00;97744.91;5112299;23;20672;-91
2022/10/21 06:59:10;;;;;;;35.07;24.97;;;;;;;15.34;100.00;97744.91;5112715;23;21110;-90
2022/10/21 07:01:16;;;;;;;41.83;25.37;;;;;;;15.35;100.00;97745.72;5137820;23;20587;-91
2022/10/21 07:03:39;;;;;;;27.90;18.93;;;;;;;15.34;100.00;97744.91;5138264;23;20578;-92
2022/10/21 07:05:42;;;;;;;18.90;16.87;;;;;;;15.36;100.00;97747.38;5139463;23;20626;-92
2022/10/21 07:07:45;;;;;;;16.83;13.53;;;;;;;15.36;100.00;97758.72;5138985;23;20611;-93
2022/10/21 07:09:48;;;;;;;23.53;15.10;;;;;;;15.33;100.00;97756.38;5113755;23;20643;-92
2022/10/21 07:11:52;;;;;;;15.40;12.60;;;;;;;15.34;100.00;97772.97;5114470;23;20682;-92
2022/10/21 07:13:55;;;;;;;24.70;14.00;;;;;;;15.35;100.00;97751.81;5112596;23;20615;-93
2022/10/21 07:15:59;;;;;;;41.70;31.70;;;;;;;15.36;100.00;97757.88;5113114;23;20669;-89
2022/10/21 07:18:04;;;;;;;29.07;24.43;;;;;;;15.36;100.00;97776.28;5138662;23;21157;-93
2022/10/21 07:20:07;;;;;;;29.80;25.10;;;;;;;15.36;100.00;97779.72;5114080;23;21194;-92
2022/10/21 07:22:11;;;;;;;30.73;23.57;;;;;;;15.37;100.00;97791.09;5162134;23;20582;-93
2022/10/21 07:24:14;;;;;;;25.23;21.60;;;;;;;15.38;100.00;97798.00;5132935;23;20579;-94
2022/10/21 07:26:24;;;;;;;21.43;15.27;;;;;;;15.39;100.00;97791.78;5133427;23;20589;-96
2022/10/21 07:28:27;;;;;;;36.03;24.10;;;;;;;15.36;100.00;97799.94;5115090;23;20646;-94
2022/10/21 07:30:30;;;;;;;21.33;15.30;;;;;;;15.36;100.00;97787.63;5114058;23;20631;-95
2022/10/21 07:32:33;;;;;;;24.33;15.77;;;;;;;15.35;100.00;97787.75;5114424;23;20643;-92
2022/10/21 07:34:38;;;;;;;18.53;14.00;;;;;;;15.32;100.00;97788.03;5138899;23;20582;-92
2022/10/21 07:36:43;;;;;;;19.10;14.87;;;;;;;15.32;100.00;97780.16;5113816;23;20584;-94
2022/10/21 07:38:47;;;;;;;20.20;14.73;;;;;;;15.32;100.00;97778.38;5113896;23;20622;-94
2022/10/21 07:40:50;;;;;;;20.40;16.30;;;;;;;15.35;100.00;97764.09;5112067;23;20644;-95
2022/10/21 07:42:53;;;;;;;29.60;24.20;;;;;;;15.37;100.00;97749.88;5138171;23;21131;-92
2022/10/21 07:44:59;;;;;;;43.10;30.37;;;;;;;15.39;100.00;97731.31;5111375;23;20582;-89
2022/10/21 07:47:03;;;;;;;24.77;21.57;;;;;;;15.38;100.00;97703.38;5136501;23;20626;-91
2022/10/21 07:49:07;;;;;;;26.57;21.53;;;;;;;15.36;100.00;97700.91;5137207;23;20609;-92
2022/10/21 07:51:13;;;;;;;22.20;18.27;;;;;;;15.38;100.00;97708.63;5135927;23;21099;-91
2022/10/21 07:53:17;;;;;;;17.63;10.13;;;;;;;15.46;100.00;97724.53;5137612;23;20583;-92
2022/10/21 07:55:20;;;;;;;15.33;9.00;;;;;;;15.56;100.00;97726.16;5137351;23;20630;-92
2022/10/21 07:57:24;;;;;;;15.20;10.20;;;;;;;15.67;100.00;97726.78;5112089;23;20635;-91
2022/10/21 07:59:27;;;;;;;14.40;8.80;;;;;;;15.78;100.00;97745.00;5113054;23;20623;-94
2022/10/21 08:01:30;;;;;;;13.33;7.90;;;;;;;15.89;100.00;97757.16;5135729;23;20604;-93
2022/10/21 08:03:34;;;;;;;17.20;8.30;;;;;;;15.95;100.00;97754.78;5113077;23;20639;-92
2022/10/21 08:05:40;;;;;;;18.57;7.80;;;;;;;16.02;100.00;97748.75;5112208;23;20978;-92
2022/10/21 08:07:45;;;;;;;18.60;8.80;;;;;;;16.08;100.00;97747.34;5112090;23;20627;-91
2022/10/21 08:09:48;;;;;;;17.60;13.30;;;;;;;16.07;100.00;97751.81;5136470;23;20596;-92
2022/10/21 08:11:51;;;;;;;24.50;13.77;;;;;;;16.08;100.00;97774.50;5136903;23;21120;-92
2022/10/21 08:13:54;;;;;;;19.47;13.83;;;;;;;16.11;100.00;97781.28;5136555;23;20614;-91
2022/10/21 08:15:58;;;;;;;20.30;14.80;;;;;;;16.12;100.00;97786.38;5135140;23;20586;-92
2022/10/21 08:18:01;;;;;;;19.73;15.47;;;;;;;16.10;100.00;97793.63;5111922;23;20584;-96
2022/10/21 08:20:05;;;;;;;17.50;13.07;;;;;;;16.09;100.00;97785.88;5112010;23;20585;-94
2022/10/21 08:22:09;;;;;;;13.03;8.07;;;;;;;16.13;100.00;97781.94;5112831;23;20613;-94
2022/10/21 08:24:13;;;;;;;14.03;7.20;;;;;;;16.19;100.00;97776.94;5112644;23;21577;-93
2022/10/21 08:26:16;;;;;;;14.13;9.50;;;;;;;16.23;100.00;97767.78;5112144;23;20608;-91
2022/10/21 08:28:20;;;;;;;15.67;9.80;;;;;;;16.30;100.00;97770.69;5112265;23;20612;-94
2022/10/21 08:30:23;;;;;;;13.97;7.90;;;;;;;16.32;100.00;97771.38;5136212;23;20683;-91
2022/10/21 08:32:26;;;;;;;8.60;6.03;;;;;;;16.33;100.00;97755.41;5112074;23;20802;-91
2022/10/21 08:34:29;;;;;;;11.63;6.87;;;;;;;16.36;100.00;97757.75;5111542;23;20574;-94
2022/10/21 08:36:32;;;;;;;13.53;6.00;;;;;;;16.39;100.00;97751.34;5136292;23;21481;-93
2022/10/21 08:38:36;;;;;;;16.27;6.43;;;;;;;16.43;100.00;97752.72;5137025;23;20584;-95
2022/10/21 08:40:44;;;;;;;13.13;7.60;;;;;;;16.45;100.00;97756.88;5136518;23;20683;-94
2022/10/21 08:42:48;;;;;;;14.50;6.07;;;;;;;16.49;100.00;97752.94;5111346;23;20609;-90
2022/10/21 08:44:55;;;;;;;9.77;5.93;;;;;;;16.53;100.00;97762.22;5136470;23;21132;-92
2022/10/21 08:47:07;;;;;;;10.50;6.60;;;;;;;16.56;100.00;97759.28;5113538;23;20676;-94
2022/10/21 08:49:14;;;;;;;11.07;5.60;;;;;;;16.60;100.00;97744.84;5134409;23;21304;-93
2022/10/21 08:51:24;;;;;;;9.30;5.40;;;;;;;16.63;100.00;97728.75;5135892;23;20576;-92
2022/10/21 08:53:30;;;;;;;11.03;5.20;;;;;;;16.66;100.00;97734.53;5112298;23;20573;-92
2022/10/21 08:55:35;;;;;;;10.37;5.67;;;;;;;16.70;100.00;97738.53;5136725;23;20973;-92
2022/10/21 08:57:40;;;;;;;13.20;5.83;;;;;;;16.74;100.00;97726.69;5136788;23;20635;-94
2022/10/21 08:59:44;;;;;;;9.20;5.40;;;;;;;16.76;100.00;97708.91;5137510;23;20621;-93
2022/10/21 09:01:53;;;;;;;12.07;5.33;;;;;;;16.80;100.00;97720.00;5112388;23;20627;-92
2022/10/21 09:04:00;;;;;;;11.40;4.80;;;;;;;16.82;100.00;97723.31;5138976;23;20993;-94
2022/10/21 09:06:15;;;;;;;8.57;4.90;;;;;;;16.84;100.00;97716.06;5113890;23;20578;-95
2022/10/21 09:08:25;;;;;;;10.90;5.50;;;;;;;16.86;100.00;97720.22;5139227;23;20596;-94
2022/10/21 09:10:38;;;;;;;8.93;5.07;;;;;;;16.90;100.00;97724.22;5139323;23;20604;-94
2022/10/21 09:12:54;;;;;;;14.40;6.30;;;;;;;16.93;100.00;97726.53;5112545;23;20651;-94
2022/10/21 09:15:24;;;;;;;15.93;9.50;;;;;;;16.95;100.00;97736.94;5111885;23;21451;-92
2022/10/21 09:17:38;;;;;;;16.10;10.80;;;;;;;16.96;100.00;97731.50;5045707;23;20693;-91
2022/10/21 09:19:46;;;;;;;17.43;10.70;;;;;;;16.88;100.00;97723.50;5113426;23;20679;-94
2022/10/21 09:21:59;;;;;;;19.50;14.73;;;;;;;16.85;100.00;97762.53;5113146;23;21193;-92
2022/10/21 09:24:26;;;;;;;20.77;13.53;;;;;;;16.83;100.00;97783.75;5135984;23;20576;-91
2022/10/21 09:26:36;;;;;;;16.80;12.77;;;;;;;16.82;100.00;97797.06;5134957;23;20575;-92
2022/10/21 09:28:42;;;;;;;17.33;11.90;;;;;;;16.80;100.00;97809.56;5112887;23;20574;-93